Latest Weather Observations for Cape Naturaliste

IDW60801

Issued at 6:43 pm WST Saturday 25 June 2022 (issued every 10 minutes, with the page automatically refreshed every 10 minutes)

About weather observations | Map of weather stations | Latest weather observations for WA | Other Formats
Station Details ID: 009519 Name: CAPE NATURALISTE Lat: -33.54 Lon: 115.02 Height: 109.0 m
Data from the previous 72 hours. | See also: Recent months at Cape Naturaliste
Date/Time
WST
Temp
°C
App
Temp
°C
Dew
Point
°C
Rel
Hum
%
Delta-T
°C
Wind Press
QNH
hPa
Press
MSL
hPa
Rain since
9am
mm
Dir  Spd
km/h
Gust
km/h
Spd
kts
Gust
kts
25/06:30pm 12.7 11.0 8.4 75 2.1 ESE 7 9 4 5 1026.1 1026.1 0.0
25/06:00pm 13.3 10.8 8.4 72 2.4 ENE 11 13 6 7 1025.5 1025.5 0.0
25/05:30pm 14.5 12.6 8.9 69 2.9 NE 9 15 5 8 1025.6 1025.6 0.0
25/05:00pm 14.6 11.8 8.5 67 3.1 NE 13 15 7 8 1025.6 1025.6 0.0
25/04:30pm 15.9 13.2 8.9 63 3.6 NE 13 19 7 10 1025.2 1025.2 0.0
25/04:00pm 16.9 14.2 9.1 60 4.0 NE 13 17 7 9 1025.3 1025.3 0.0
25/03:30pm 17.7 15.6 9.6 59 4.3 NE 11 15 6 8 1025.2 1025.2 0.0
25/03:00pm 16.5 14.3 9.2 62 3.8 NE 11 17 6 9 1025.0 1025.0 0.0
25/02:30pm 16.9 14.8 9.8 63 3.7 NNE 11 17 6 9 1024.8 1024.7 0.0
25/02:00pm 18.1 15.6 9.7 58 4.4 NE 13 17 7 9 1024.8 1024.7 0.0
25/01:30pm 18.1 15.6 9.7 58 4.5 NNE 13 17 7 9 1024.6 1024.5 0.0
25/01:00pm 18.2 15.8 10.1 59 4.3 NE 13 17 7 9 1024.8 1024.7 0.0
25/12:30pm 16.5 14.5 11.4 72 2.8 NE 13 17 7 9 1025.2 1025.2 0.0
25/12:00pm 16.1 14.0 11.1 72 2.7 NE 13 15 7 8 1025.7 1025.7 0.0
25/11:30am 17.3 15.2 11.3 68 3.3 ENE 13 17 7 9 1026.0 1026.0 0.0
25/11:00am 15.1 14.1 12.2 83 1.6 ESE 9 11 5 6 1026.5 1026.5 0.0
25/10:30am 15.2 14.2 12.3 83 1.6 E 9 13 5 7 1026.5 1026.5 0.0
25/10:00am 15.3 14.2 12.1 81 1.7 E 9 11 5 6 1026.7 1026.7 0.0
25/09:30am 16.5 15.5 12.3 76 2.3 E 9 11 5 6 1026.6 1026.6 0.0
25/09:00am 14.6 13.4 11.7 83 1.6 ENE 9 13 5 7 1026.5 1026.5 0.2
25/08:30am 13.6 12.8 11.7 88 1.0 E 7 9 4 5 1026.5 1026.5 0.2
25/08:00am 13.3 11.7 11.5 89 1.0 E 11 13 6 7 1026.0 1026.0 0.2
25/07:30am 12.1 10.6 10.7 91 0.7 E 9 11 5 6 1025.7 1025.7 0.2
25/07:00am 12.0 10.5 10.6 91 0.7 ESE 9 11 5 6 1025.6 1025.6 0.2
25/06:30am 11.8 10.3 10.5 92 0.7 ESE 9 11 5 6 1025.5 1025.5 0.2
25/06:00am 11.4 9.1 10.3 93 0.6 ESE 13 13 7 7 1025.2 1025.2 0.2
25/05:30am 11.4 9.0 10.1 92 0.7 ESE 13 13 7 7 1024.8 1024.7 0.2
25/05:00am 11.1 8.6 9.7 91 0.7 ESE 13 13 7 7 1024.7 1024.6 0.2
25/04:30am 11.0 8.8 9.4 90 0.8 ESE 11 13 6 7 1024.7 1024.6 0.2
25/04:00am 10.9 8.7 9.5 91 0.7 SE 11 13 6 7 1024.7 1024.6 0.2
25/03:30am 10.9 8.4 9.7 92 0.6 SE 13 13 7 7 1024.9 1024.9 0.2
25/03:00am 10.6 7.9 9.0 90 0.8 SE 13 15 7 8 1024.8 1024.7 0.2
25/02:30am 11.2 8.2 9.3 88 1.0 SE 15 17 8 9 1024.9 1024.9 0.2
25/02:00am 11.9 9.3 9.5 85 1.2 SSE 13 15 7 8 1024.8 1024.7 0.2
25/01:30am 12.6 9.7 9.8 83 1.4 S 15 19 8 10 1024.8 1024.7 0.2
25/01:00am 13.4 11.4 10.0 80 1.8 NW 11 15 6 8 1025.1 1025.1 0.2
25/12:30am 13.3 11.1 9.4 77 2.0 WNW 11 13 6 7 1025.0 1025.0 0.2
25/12:00am 13.5 12.1 9.4 76 2.1 NE 7 9 4 5 1024.9 1024.9 0.2
 
Date/Time
WST
Temp
°C
App
Temp
°C
Dew
Point
°C
Rel
Hum
%
Delta-T
°C
Wind Press
QNH
hPa
Press
MSL
hPa
Rain since
9am
mm
Dir  Spd
km/h
Gust
km/h
Spd
kts
Gust
kts
24/11:30pm 12.9 11.0 9.2 78 1.9 NE 9 11 5 6 1025.0 1025.0 0.2
24/11:00pm 13.2 11.6 8.9 75 2.2 NE 7 7 4 4 1025.2 1025.2 0.2
24/10:30pm 13.4 11.9 9.3 76 2.1 NE 7 9 4 5 1025.3 1025.3 0.2
24/10:00pm 13.0 11.1 8.9 76 2.1 NE 9 11 5 6 1025.2 1025.2 0.2
24/09:30pm 12.6 10.7 8.9 78 1.9 NNE 9 11 5 6 1025.3 1025.3 0.2
24/09:00pm 12.8 11.1 8.3 74 2.2 NNE 7 9 4 5 1025.7 1025.7 0.2
24/08:30pm 12.9 11.3 8.6 75 2.2 NNE 7 9 4 5 1025.8 1025.8 0.2
24/08:00pm 13.0 11.0 8.5 74 2.2 NE 9 9 5 5 1025.8 1025.8 0.2
24/07:30pm 12.9 11.2 8.2 73 2.3 NE 7 9 4 5 1026.0 1026.0 0.2
24/07:00pm 12.7 11.0 7.6 71 2.5 NNE 6 7 3 4 1026.0 1026.0 0.2
24/06:30pm 12.5 10.8 7.6 72 2.4 NNE 6 7 3 4 1025.8 1025.8 0.2
24/06:00pm 12.6 10.9 7.7 72 2.4 NNE 6 7 3 4 1025.7 1025.7 0.2
24/05:30pm 12.3 11.3 7.4 72 2.4 NNE 2 7 1 4 1025.6 1025.6 0.2
24/05:00pm 12.8 10.8 7.3 69 2.7 NNE 7 9 4 5 1025.6 1025.6 0.2
24/04:30pm 14.7 12.5 8.0 64 3.4 NE 9 11 5 6 1025.5 1025.5 0.2
24/04:00pm 15.1 12.1 7.9 62 3.6 NNE 13 17 7 9 1025.3 1025.3 0.2
24/03:30pm 15.7 12.8 8.2 61 3.8 NE 13 15 7 8 1025.3 1025.3 0.2
24/03:00pm 16.1 13.2 8.3 60 4.0 NE 13 17 7 9 1025.2 1025.2 0.2
24/02:30pm 16.3 13.4 8.3 59 4.1 NNE 13 19 7 10 1025.3 1025.3 0.2
24/02:00pm 16.4 13.2 8.4 59 4.1 ENE 15 19 8 10 1025.4 1025.4 0.2
24/01:30pm 16.5 13.3 8.5 59 4.1 NE 15 19 8 10 1025.5 1025.5 0.2
24/01:00pm 16.7 13.8 8.1 57 4.4 NE 13 15 7 8 1026.0 1026.0 0.2
24/12:30pm 16.4 13.6 8.6 60 4.0 ENE 13 20 7 11 1026.3 1026.3 0.2
24/12:00pm 16.4 13.6 8.6 60 4.0 NE 13 17 7 9 1026.8 1026.8 0.2
24/11:30am 16.2 12.9 8.2 59 4.1 NE 15 20 8 11 1026.9 1026.9 0.2
24/11:00am 15.8 12.1 8.1 60 3.9 NE 17 22 9 12 1027.1 1027.1 0.2
24/10:30am 15.8 12.5 9.5 66 3.3 ENE 17 24 9 13 1027.1 1027.1 0.2
24/10:00am 15.2 11.4 8.9 66 3.2 E 19 24 10 13 1027.4 1027.4 0.0
24/09:30am 14.1 10.6 8.7 70 2.7 E 17 22 9 12 1027.5 1027.5 0.0
24/09:00am 13.6 10.9 10.2 80 1.8 ESE 15 17 8 9 1027.5 1027.5 6.4
24/08:30am 12.5 10.1 10.0 85 1.3 ESE 13 17 7 9 1027.4 1027.4 6.4
24/08:00am 11.5 8.7 9.9 90 0.8 ESE 15 17 8 9 1027.2 1027.2 6.4
24/07:30am 10.4 7.7 9.0 91 0.7 ESE 13 15 7 8 1027.2 1027.2 6.4
24/07:00am 10.4 7.8 9.2 92 0.6 ESE 13 17 7 9 1027.0 1027.0 6.4
24/06:30am 11.0 7.7 9.4 90 0.8 E 17 20 9 11 1026.8 1026.8 6.4
24/06:00am 10.5 6.8 7.9 84 1.3 ESE 17 20 9 11 1026.6 1026.6 6.4
24/05:30am 9.8 6.1 7.9 88 0.9 SE 17 20 9 11 1026.4 1026.4 6.4
24/05:00am 10.0 7.4 7.8 86 1.1 SSE 11 15 6 8 1026.2 1026.2 6.4
24/04:30am 10.5 8.7 9.4 93 0.6 SE 9 11 5 6 1026.2 1026.2 6.4
24/04:00am 10.1 8.1 8.7 91 0.7 SE 9 13 5 7 1026.3 1026.3 6.4
24/03:30am 9.8 7.0 8.7 93 0.5 SSE 13 17 7 9 1026.1 1026.1 6.4
24/03:00am 10.1 7.5 9.3 95 0.4 SE 13 15 7 8 1026.0 1026.0 6.4
24/02:30am 10.0 7.4 9.4 96 0.3 SE 13 17 7 9 1025.8 1025.8 6.4
24/02:00am 9.9 6.9 9.3 96 0.3 SE 15 17 8 9 1025.8 1025.8 6.4
24/01:30am 9.6 6.9 9.0 96 0.3 SE 13 15 7 8 1025.8 1025.8 6.4
24/01:00am 9.6 7.3 9.0 96 0.3 SE 11 15 6 8 1025.8 1025.8 6.4
24/12:30am 9.9 6.9 9.3 96 0.3 SE 15 17 8 9 1025.8 1025.8 6.4
24/12:00am 10.0 7.0 9.2 95 0.4 SE 15 15 8 8 1025.9 1025.9 6.4
 
Date/Time
WST
Temp
°C
App
Temp
°C
Dew
Point
°C
Rel
Hum
%
Delta-T
°C
Wind Press
QNH
hPa
Press
MSL
hPa
Rain since
9am
mm
Dir  Spd
km/h
Gust
km/h
Spd
kts
Gust
kts
23/11:30pm 10.2 7.3 9.6 96 0.3 SE 15 19 8 10 1026.0 1026.0 6.4
23/11:00pm 10.4 7.1 9.6 95 0.4 SE 17 19 9 10 1026.0 1026.0 6.4
23/10:30pm 10.8 7.2 10.0 95 0.4 SE 19 20 10 11 1025.9 1025.9 6.4
23/10:00pm 10.7 7.5 10.1 96 0.3 SE 17 20 9 11 1025.8 1025.8 6.4
23/09:30pm 10.8 7.7 10.2 96 0.3 SE 17 22 9 12 1025.6 1025.6 6.4
23/09:00pm 11.1 7.7 10.5 96 0.3 SE 19 24 10 13 1025.6 1025.6 6.4
23/08:30pm 11.5 8.2 10.9 96 0.3 SE 19 20 10 11 1025.6 1025.6 6.4
23/08:00pm 11.4 8.4 10.8 96 0.3 SE 17 20 9 11 1025.4 1025.4 6.4
23/07:30pm 11.8 9.0 11.2 96 0.3 SE 17 19 9 10 1025.2 1025.2 6.4
23/07:00pm 12.2 9.5 11.6 96 0.3 SE 17 22 9 12 1024.9 1024.9 6.4
23/06:30pm 12.2 9.1 11.6 96 0.3 SE 19 22 10 12 1024.5 1024.4 6.4
23/06:00pm 12.6 10.0 12.0 96 0.3 SE 17 20 9 11 1024.2 1024.1 6.4
23/05:30pm 12.6 10.8 12.0 96 0.3 SSE 13 17 7 9 1024.0 1023.9 6.4
23/05:00pm 12.8 11.0 12.2 96 0.3 SE 13 17 7 9 1023.6 1023.5 6.4
23/04:30pm 13.3 11.2 12.5 95 0.4 SE 15 22 8 12 1023.4 1023.3 6.4
23/04:00pm 13.6 11.6 12.8 95 0.4 SSE 15 20 8 11 1023.1 1023.0 6.4
23/03:30pm 13.3 10.8 12.4 94 0.5 SSE 17 28 9 15 1023.0 1022.9 6.4
23/03:00pm 14.3 12.6 13.7 96 0.3 SSE 15 20 8 11 1022.6 1022.5 6.2
23/02:30pm 14.1 13.1 13.3 95 0.4 SE 11 17 6 9 1022.5 1022.4 5.4
23/02:00pm 14.6 14.5 14.0 96 0.3 SE 7 11 4 6 1022.5 1022.4 4.6
23/01:30pm 14.4 13.9 13.8 96 0.3 SE 9 13 5 7 1022.5 1022.4 4.4
23/01:00pm 14.2 12.9 13.6 96 0.3 SSE 13 17 7 9 1022.5 1022.4 4.2
23/12:30pm 14.1 11.5 13.3 95 0.4 S 19 24 10 13 1023.0 1022.9 3.2
23/12:00pm 14.8 12.5 14.0 95 0.5 SSW 19 28 10 15 1023.2 1023.1 2.8
23/11:30am 14.7 12.1 13.9 95 0.5 SSW 20 30 11 16 1023.4 1023.3 2.4
23/11:00am 14.9 12.3 13.9 94 0.6 SSW 20 28 11 15 1023.3 1023.2 2.2
23/10:30am 14.9 12.9 13.9 94 0.6 SSW 17 20 9 11 1023.6 1023.5 1.8
23/10:00am 14.8 12.8 14.0 95 0.5 SSW 17 20 9 11 1023.5 1023.4 1.6
23/09:30am 14.7 12.1 13.9 95 0.5 SSW 20 28 11 15 1023.5 1023.4 1.0
23/09:00am 15.1 11.8 14.0 93 0.6 SSW 24 32 13 17 1023.0 1022.9 1.2
23/08:30am 15.8 13.0 13.3 85 1.4 S 20 26 11 14 1022.5 1022.4 0.8
23/08:00am 15.7 12.6 13.4 86 1.3 SSW 22 32 12 17 1022.2 1022.1 0.8
23/07:30am 15.6 11.7 13.4 87 1.2 SSW 26 35 14 19 1021.9 1021.8 0.8
23/07:00am 16.1 12.0 13.9 87 1.2 SSW 28 35 15 19 1021.6 1021.5 0.8
23/06:30am 16.3 12.8 14.5 89 1.0 SSW 26 39 14 21 1021.1 1021.0 0.8
23/06:00am 16.4 12.6 13.5 83 1.6 SW 26 33 14 18 1020.8 1020.7 0.8
23/05:30am 16.5 13.1 13.8 84 1.5 SW 24 30 13 16 1021.0 1020.9 0.8
23/05:00am 16.2 13.7 13.5 84 1.5 SW 19 24 10 13 1020.7 1020.6 0.8
23/04:30am 15.9 13.4 13.4 85 1.4 WSW 19 22 10 12 1020.5 1020.4 0.8
23/04:00am 15.8 13.0 12.7 82 1.7 WSW 19 24 10 13 1020.5 1020.4 0.8
23/03:30am 16.0 14.7 14.9 93 0.6 WSW 15 20 8 11 1020.4 1020.3 0.8
23/03:00am 15.8 14.3 14.3 91 0.9 W 15 17 8 9 1020.3 1020.2 0.8
23/02:30am 15.6 14.4 14.1 91 0.9 W 13 15 7 8 1020.5 1020.4 0.8
23/02:00am 15.4 13.1 14.1 92 0.7 WSW 19 24 10 13 1020.6 1020.5 0.8
23/01:30am 15.3 12.8 14.0 92 0.7 WSW 20 24 11 13 1020.4 1020.3 0.8
23/01:00am 15.3 14.3 14.5 95 0.5 WSW 13 20 7 11 1020.5 1020.4 0.8
23/12:30am 15.3 14.7 14.7 96 0.3 W 11 13 6 7 1020.5 1020.4 0.8
23/12:00am 15.1 14.8 14.5 96 0.3 WSW 9 11 5 6 1020.6 1020.5 0.8
 
Date/Time
WST
Temp
°C
App
Temp
°C
Dew
Point
°C
Rel
Hum
%
Delta-T
°C
Wind Press
QNH
hPa
Press
MSL
hPa
Rain since
9am
mm
Dir  Spd
km/h
Gust
km/h
Spd
kts
Gust
kts
22/11:30pm 15.0 13.9 14.4 96 0.3 WSW 13 17 7 9 1020.8 1020.7 0.8
22/11:00pm 14.8 12.9 14.2 96 0.3 SW 17 22 9 12 1020.9 1020.8 0.8
22/10:30pm 14.9 12.1 14.3 96 0.3 SW 22 30 12 16 1020.9 1020.8 0.8
22/10:00pm 14.8 12.3 14.2 96 0.3 WSW 20 26 11 14 1020.8 1020.7 0.8
22/09:41pm 14.9 11.0 14.3 96 0.3 SW 28 37 15 20 1020.7 1020.6 0.6
22/09:30pm 15.4 14.5 14.9 97 0.3 SSW 13 17 7 9 1020.7 1020.6 0.6
22/09:00pm 15.5 14.3 15.0 97 0.3 SSW 15 22 8 12 1020.5 1020.4 0.6
22/08:30pm 15.4 11.9 14.4 94 0.6 SSW 26 33 14 18 1020.2 1020.1 0.4
22/08:00pm 17.9 13.8 13.8 77 2.3 WNW 28 37 15 20 1019.9 1019.8 0.2
22/07:30pm 17.5 13.5 14.0 80 2.0 WNW 28 35 15 19 1019.9 1019.8 0.2
22/07:00pm 17.5 12.6 13.8 79 2.1 W 32 41 17 22 1019.7 1019.6 0.2

Other formats

Comma delimited format used in spreadsheet applications
http://www.bom.gov.au/fwo/IDW60801/IDW60801.94600.axf

JavaScript Object Notation format (JSON) in row-major order
http://www.bom.gov.au/fwo/IDW60801/IDW60801.94600.json

Data quality

Most of these data are generated automatically and are frequently updated. Quality checks on data are not normally performed. It is possible for incorrect values to appear. Refer to information at About Latest Weather Observations and please check the disclaimer before using these data.